Terminal Aerodrome Forecast
Issued by NWS

Home | Current Version | Previous Version | Text Only | Print | Product List | Glossary On
Versions: 1 2 3 4 5 6 7 8 9 10 11 12 13 14 15 16 17 18 19 20 21 22 23 24
953
FTUS43 KDLH 082349
TAFBRD
TAF
KBRD 082349Z 0900/0924 33016KT 4SM -SN BKN028 OVC040
      TEMPO 0900/0904 2SM -SN OVC025
     FM090900 34012KT P6SM SCT050
     FM091500 34012G20KT P6SM SCT050=

USA.gov is the U.S. government's official web portal to all federal, state and local government web resources and services.